»·PEaware :: N5491 L19-KSNA

N5491 :: L19-KSNA

FLIGHT INFORMATION

Flight Status: Arrived
Operator: Privately registered:
United States
More flights under this callsign
Pilot: Ben H. (9170)
Aircraft: PIPER PA-32 SARATOGA
(PA32)
More flights by this aircraft type
Origin: L19 Wasco-Kern Co
United States
Destination: KSNA John Wayne-Orange Co
United States
More flights between these airports :: More routes between these airports
Route: +EHF V23 LAX V23 SLI
File this flight plan on PilotEdge
Remarks:
Altitude:
(Current/Filed)
7,000ft
Speed:
(Current/Filed)
160kts
Departed: 29-Jan-19 09:17 PM
Arrived: 29-Jan-19 10:25 PM
Distance/Time
Traveled:
138nm/1:08
Distance/Time
To Go:
Arrived

Flight Plot

Page will automatically refresh every two minutes.

Flight plan parsing failed; only flown route is shown


Map Options




Map Legend


Flown Route
Filed Route
Departure Airport
Arrival Airport
Navaid (VOR, NDB)
Fix

Horizontal Profiles

Position Reports

Time Latitude Longitude Heading Altitude Ground
Speed
29-Jan-19 21:07 35.620877 -119.349693 269 314ft 0kts
29-Jan-19 21:08 35.620877 -119.349693 269 314ft 0kts
29-Jan-19 21:09 35.620877 -119.349693 269 314ft 0kts
29-Jan-19 21:10 35.620877 -119.349693 269 314ft 0kts
29-Jan-19 21:11 35.619960 -119.349880 180 314ft 6kts
29-Jan-19 21:12 35.618007 -119.349900 179 314ft 7kts
29-Jan-19 21:13 35.617179 -119.349917 187 315ft 0kts
29-Jan-19 21:14 35.617180 -119.349917 187 314ft 0kts
29-Jan-19 21:15 35.617047 -119.349975 218 314ft 7kts
29-Jan-19 21:16 35.631475 -119.367441 299 758ft 104kts
29-Jan-19 21:17 35.617513 -119.365569 98 1503ft 127kts
29-Jan-19 21:18 35.604319 -119.324297 120 2224ft 133kts
29-Jan-19 21:19 35.584270 -119.285355 122 3034ft 133kts
29-Jan-19 21:20 35.564160 -119.247251 122 3889ft 131kts
29-Jan-19 21:21 35.546814 -119.214528 121 4724ft 128kts
29-Jan-19 21:22 35.527611 -119.178221 120 5671ft 126kts
29-Jan-19 21:23 35.508349 -119.141764 120 6576ft 129kts
29-Jan-19 21:25 35.486741 -119.101574 131 7000ft 158kts
29-Jan-19 21:26 35.444110 -119.082822 165 7001ft 167kts
29-Jan-19 21:27 35.398972 -119.067412 164 7001ft 170kts
29-Jan-19 21:28 35.354199 -119.051818 164 7001ft 170kts
29-Jan-19 21:29 35.308792 -119.036002 164 7001ft 171kts
29-Jan-19 21:30 35.263068 -119.020096 164 7001ft 171kts
29-Jan-19 21:31 35.217284 -119.004186 164 7001ft 170kts
29-Jan-19 21:32 35.171607 -118.988308 163 7002ft 170kts
29-Jan-19 21:33 35.125674 -118.972178 163 7210ft 169kts
29-Jan-19 21:34 35.082115 -118.956777 163 7909ft 159kts
29-Jan-19 21:35 35.040085 -118.942053 163 8613ft 156kts
29-Jan-19 21:36 34.999881 -118.928331 163 9292ft 155kts
29-Jan-19 21:37 34.958223 -118.914140 165 10001ft 155kts
29-Jan-19 21:38 34.916870 -118.899856 167 10711ft 155kts
29-Jan-19 21:39 34.883427 -118.888368 170 11045ft 167kts
29-Jan-19 21:40 34.851509 -118.877641 170 11042ft 178kts
29-Jan-19 21:41 34.807190 -118.862371 167 11037ft 183kts
29-Jan-19 21:42 34.761145 -118.840034 162 11039ft 185kts
29-Jan-19 21:42 34.724901 -118.821973 162 11043ft 184kts
29-Jan-19 21:44 34.669633 -118.794490 162 11023ft 184kts
29-Jan-19 21:45 34.622168 -118.770922 161 10991ft 185kts
29-Jan-19 21:45 34.582349 -118.751172 162 10969ft 184kts
29-Jan-19 21:46 34.536513 -118.728459 162 10954ft 179kts
29-Jan-19 21:48 34.482717 -118.701842 162 10953ft 177kts
29-Jan-19 21:49 34.437788 -118.679619 161 11001ft 179kts
29-Jan-19 21:49 34.404073 -118.662996 161 10998ft 183kts
29-Jan-19 21:50 34.357114 -118.639859 161 10996ft 185kts
29-Jan-19 21:51 34.309272 -118.616304 162 10996ft 185kts
29-Jan-19 21:52 34.263680 -118.593862 162 10997ft 185kts
29-Jan-19 21:53 34.223468 -118.574092 162 10997ft 185kts
29-Jan-19 21:54 34.171968 -118.548817 162 11000ft 184kts
29-Jan-19 21:55 34.124322 -118.525463 162 11003ft 184kts
29-Jan-19 21:56 34.077333 -118.502459 162 11006ft 184kts
29-Jan-19 21:57 34.030488 -118.479552 162 11007ft 184kts
29-Jan-19 21:58 33.989327 -118.459447 162 11008ft 184kts
29-Jan-19 21:59 33.950076 -118.440296 162 11010ft 184kts
29-Jan-19 22:00 33.909883 -118.407821 141 10890ft 191kts
29-Jan-19 22:01 33.879919 -118.375453 140 10383ft 201kts
29-Jan-19 22:02 33.853515 -118.332491 109 9820ft 207kts
29-Jan-19 22:03 33.841146 -118.283690 106 9282ft 199kts
29-Jan-19 22:04 33.827032 -118.227094 106 8616ft 186kts
29-Jan-19 22:05 33.813886 -118.175252 106 7934ft 177kts
29-Jan-19 22:06 33.799623 -118.123996 108 7121ft 167kts
29-Jan-19 22:07 33.784160 -118.070043 108 6216ft 158kts
29-Jan-19 22:08 33.769726 -118.019979 108 5240ft 145kts
29-Jan-19 22:09 33.755669 -117.969527 104 3413ft 171kts
29-Jan-19 22:10 33.742239 -117.912795 106 1997ft 129kts
29-Jan-19 22:11 33.740050 -117.884669 16 2130ft 88kts
29-Jan-19 22:12 33.769744 -117.884739 22 2815ft 115kts
29-Jan-19 22:13 33.803475 -117.866179 24 3006ft 150kts
29-Jan-19 22:14 33.840286 -117.839921 34 3004ft 159kts
29-Jan-19 22:15 33.876728 -117.808958 34 3005ft 162kts
29-Jan-19 22:16 33.872082 -117.761898 147 3006ft 163kts
29-Jan-19 22:17 33.830624 -117.772292 205 3006ft 161kts
29-Jan-19 22:18 33.799658 -117.791328 207 2646ft 86kts
29-Jan-19 22:19 33.778345 -117.804615 207 2232ft 113kts
29-Jan-19 22:20 33.751495 -117.821518 207 1627ft 101kts
29-Jan-19 22:21 33.728801 -117.835712 206 1128ft 92kts
29-Jan-19 22:22 33.706433 -117.849187 205 652ft 88kts
29-Jan-19 22:23 33.685593 -117.862513 207 195ft 88kts
29-Jan-19 22:24 33.672460 -117.871150 234 59ft 8kts
29-Jan-19 22:25 33.671530 -117.873117 291 60ft 6kts
29-Jan-19 22:26 33.671549 -117.873777 209 60ft 0kts

Navigation Log

Ident Type
Flight plan parsing failed, navigation log unavailable